Bledso, Texas
Current Conditions -  °F | °C
As of 8:58 AM on Sunday 21 Dec 2014 (Local Time) from KCVS Reporting Station
Clear Clear  
Wind Chill: 29°   Ceiling: Unl
Heat Index: 37°   Visibility: 10mi
Dew Point: 24°   Wind: 13mph
Humidity: 59%   Direction: 280°W
Pressure: 29.88"   Gusts: NA
Location:  33.6301°N, 103.023°W
Report Text: KCVS 211458Z AUTO 28011KT 10SM CLR 03/M05 A2988 RMK AO2 SLP119 T00281046 55002 $
Loading
Personal Weather Stations






























Interactive Weather Map New forecast layout! Learn more

10-Day Weather Forecast

Advertisements
Track Severe Weather on mobile